NCAR-RAP Real-Time Weather Data

Output produced by METARs form (24 April 2018  16:15 UTC)
found at http://weather.rap.ucar.edu/surface/
 
RJSY 241200Z 10012KT 9999 -RA FEW007 SCT030 BKN050 13/11 Q1008
RJSY 241100Z 10010KT 9999 -RA FEW007 SCT040 BKN070 13/11 Q1008
RJSY 241000Z 10012KT 9999 -RA FEW007 SCT030 BKN070 13/11 Q1008
RJSY 240900Z 09010KT 9000 -RA FEW006 SCT030 BKN050 13/11 Q1008
RJSY 240800Z 10009KT 7000 -RA FEW007 SCT030 BKN050 13/11 Q1009
RJSY 240700Z 10009KT 8000 -RA FEW006 SCT030 BKN050 13/12 Q1009
RJSY 240600Z 10010KT 8000 -RA FEW006 SCT035 BKN050 14/12 Q1010
RJSY 240500Z 10009KT 8000 -RA FEW006 SCT035 BKN045 14/12 Q1011
RJSY 240400Z 08010KT 8000 -RA FEW006 SCT020 BKN040 13/12 Q1012
RJSY 240300Z 10006KT 5000 -RA BR FEW006 SCT015 BKN020 12/11 Q1012
RJSY 240200Z 09006KT 4500 -RA BR FEW006 SCT015 BKN020 12/11 Q1013
RJSY 240142Z 10006KT 4000 -RA BR FEW006 SCT015 BKN020 12/10 Q1014 RMK 1ST006 4ST015 6SC020 A2994
RJSY 240100Z 10007KT 9999 -RA FEW008 BKN025 BKN040 13/10 Q1014
RJSY 240000Z 10007KT 9999 -RA FEW010 SCT025 BKN050 13/10 Q1014
RJSY 232300Z 10005KT 9999 -RA FEW010 SCT030 BKN050 13/09 Q1015
RJSY 232200Z 10009KT 9999 FEW010 BKN050 BKN100 13/09 Q1015
RJSY 231200Z 09018KT 9999 FEW020 SCT110 BKN170 12/07 Q1019
RJSY 231100Z 10020KT 9999 FEW020 BKN/// 12/07 Q1019
RJSY 231000Z 09021KT 9999 FEW020 SCT170 BKN/// 12/07 Q1019
RJSY 230900Z 09020KT 9999 FEW020 SCT100 BKN/// 13/07 Q1019
RJSY 230800Z 08020KT 9999 FEW020 SCT170 BKN/// 14/08 Q1018
RJSY 230700Z 08017KT 9999 FEW020 SCT110 BKN130 14/08 Q1018
RJSY 230600Z 09020KT 9999 FEW020 SCT130 BKN160 15/08 Q1018
RJSY 230500Z 08016KT 9999 FEW030 SCT130 BKN150 16/08 Q1018
RJSY 230400Z 09016KT 9999 FEW030 SCT140 BKN160 17/09 Q1018
RJSY 230300Z 10017KT 9999 FEW030 SCT160 BKN/// 18/08 Q1019
RJSY 230200Z 09019KT 9999 FEW025 BKN160 BKN/// 16/08 Q1020
RJSY 230100Z 10019KT 9999 FEW020 SCT140 BKN160 15/08 Q1021
RJSY 230000Z 11017KT CAVOK 15/08 Q1021
RJSY 222300Z 09016KT CAVOK 15/09 Q1021
RJSY 222200Z 10012KT 9999 FEW010 SCT130 BKN150 12/08 Q1021
RJSY 221200Z 25004KT CAVOK 12/10 Q1019
RJSY 221100Z 25005KT CAVOK 13/11 Q1019
RJSY 221000Z 26004KT CAVOK 13/10 Q1018
RJSY 220900Z 25003KT 210V310 CAVOK 15/09 Q1018
RJSY 220800Z 26004KT 210V290 CAVOK 17/09 Q1018
RJSY 220700Z 30005KT 260V350 CAVOK 17/09 Q1018
RJSY 220600Z 33006KT 290V020 CAVOK 19/09 Q1018
RJSY 220500Z 34006KT 270V040 CAVOK 19/09 Q1018